createdAt,value
2024-02-21T00:01:44.700Z,102208.03
2024-02-21T00:04:12.108Z,102206.38
2024-02-21T00:06:39.457Z,102201.41
2024-02-21T00:09:06.808Z,102200.13
2024-02-21T00:11:34.705Z,102199.13
2024-02-21T00:14:02.202Z,102187.44
2024-02-21T00:16:29.569Z,102195.69
2024-02-21T00:18:57.110Z,102188.72
2024-02-21T00:21:24.458Z,102192.13
2024-02-21T00:23:51.926Z,102190.56
2024-02-21T00:26:19.581Z,102183.00
2024-02-21T00:28:47.060Z,102188.44
2024-02-21T00:31:14.502Z,102181.31
2024-02-21T00:33:42.570Z,102187.16
2024-02-21T00:36:10.381Z,102187.84
2024-02-21T00:38:37.674Z,102199.97
2024-02-21T00:41:05.066Z,102192.50
2024-02-21T00:43:32.702Z,102186.28
2024-02-21T00:46:00.135Z,102193.25
2024-02-21T00:48:27.639Z,102195.94
2024-02-21T00:50:54.980Z,102193.56
2024-02-21T00:53:25.509Z,102187.66
2024-02-21T00:55:53.000Z,102187.00
2024-02-21T00:58:20.480Z,102200.16
2024-02-21T01:00:47.913Z,102206.25
2024-02-21T01:03:15.488Z,102194.63
2024-02-21T01:05:42.792Z,102193.38
2024-02-21T01:08:10.213Z,102184.38
2024-02-21T01:10:37.536Z,102181.53
2024-02-21T01:13:04.877Z,102175.63
2024-02-21T01:15:32.376Z,102180.09
2024-02-21T01:17:59.954Z,102184.78
2024-02-21T01:20:27.308Z,102179.88
2024-02-21T01:22:54.585Z,102190.91
2024-02-21T01:25:21.907Z,102184.75
2024-02-21T01:27:49.254Z,102179.88
2024-02-21T01:30:16.673Z,102186.69
2024-02-21T01:32:43.929Z,102180.66
2024-02-21T01:35:11.414Z,102186.34
2024-02-21T01:37:38.962Z,102184.53
2024-02-21T01:40:07.260Z,102184.03
2024-02-21T01:42:39.545Z,102189.81
2024-02-21T01:45:07.324Z,102179.03
2024-02-21T01:47:35.004Z,102184.16
2024-02-21T01:50:03.727Z,102183.19
2024-02-21T01:52:31.953Z,102180.63
2024-02-21T01:54:59.485Z,102168.41
2024-02-21T01:57:27.558Z,102170.72
2024-02-21T01:59:54.920Z,102169.75
2024-02-21T02:02:22.640Z,102172.25
2024-02-21T02:04:50.333Z,102168.25
2024-02-21T02:07:17.765Z,102176.66
2024-02-21T02:09:45.223Z,102166.16
2024-02-21T02:12:12.576Z,102164.84
2024-02-21T02:14:39.860Z,102162.31
2024-02-21T02:17:07.264Z,102168.06
2024-02-21T02:19:35.210Z,102160.75
2024-02-21T02:22:17.123Z,102156.28
2024-02-21T02:24:44.681Z,102159.53
2024-02-21T02:27:12.064Z,102159.75
2024-02-21T02:29:39.349Z,102161.84
2024-02-21T02:32:07.137Z,102144.91
2024-02-21T02:34:34.483Z,102139.38
2024-02-21T02:37:01.926Z,102152.00
2024-02-21T02:39:30.426Z,102155.41
2024-02-21T02:41:57.765Z,102162.34
2024-02-21T02:44:25.112Z,102168.75
2024-02-21T02:46:52.473Z,102176.00
2024-02-21T02:49:19.936Z,102175.22
2024-02-21T02:51:47.281Z,102177.09
2024-02-21T02:54:14.699Z,102174.88
2024-02-21T02:56:43.382Z,102185.44
2024-02-21T02:59:10.703Z,102184.59
2024-02-21T03:01:39.164Z,102170.63
2024-02-21T03:04:06.668Z,102174.66
2024-02-21T03:06:34.354Z,102178.69
2024-02-21T03:09:01.648Z,102173.59
2024-02-21T03:11:31.224Z,102177.56
2024-02-21T03:13:58.919Z,102180.00
2024-02-21T03:16:26.781Z,102181.41
2024-02-21T03:18:54.249Z,102187.63
2024-02-21T03:21:21.615Z,102172.19
2024-02-21T03:23:49.472Z,102176.34
2024-02-21T03:26:18.456Z,102173.28
2024-02-21T03:28:49.498Z,102176.81
2024-02-21T03:31:16.890Z,102184.16
2024-02-21T03:33:45.113Z,102183.56
2024-02-21T03:36:16.650Z,102171.22
2024-02-21T03:38:44.298Z,102184.06
2024-02-21T03:41:11.715Z,102184.59
2024-02-21T03:43:39.972Z,102189.53
2024-02-21T03:46:07.949Z,102185.94
2024-02-21T03:48:35.246Z,102187.28
2024-02-21T03:51:02.695Z,102182.47
2024-02-21T03:53:30.040Z,102184.31
2024-02-21T03:55:58.063Z,102181.22
2024-02-21T03:58:25.608Z,102174.69
2024-02-21T04:00:53.189Z,102177.44
2024-02-21T04:03:20.972Z,102179.53
2024-02-21T04:05:48.365Z,102179.06
2024-02-21T04:08:15.715Z,102177.91
2024-02-21T04:10:43.754Z,102175.63
2024-02-21T04:13:11.536Z,102178.16
2024-02-21T04:15:39.459Z,102188.19
2024-02-21T04:18:07.152Z,102191.25
2024-02-21T04:20:36.710Z,102202.22
2024-02-21T04:23:04.389Z,102211.75
2024-02-21T04:25:31.744Z,102208.00
2024-02-21T04:27:59.067Z,102219.16
2024-02-21T04:30:26.437Z,102219.47
2024-02-21T04:32:53.996Z,102220.00
2024-02-21T04:35:22.024Z,102221.94
2024-02-21T04:37:50.827Z,102215.06
2024-02-21T04:40:18.282Z,102202.69
2024-02-21T04:42:45.588Z,102199.31
2024-02-21T04:45:13.009Z,102200.06
2024-02-21T04:47:40.389Z,102196.50
2024-02-21T04:50:08.219Z,102193.91
2024-02-21T04:52:35.594Z,102191.91
2024-02-21T04:55:02.912Z,102182.94
2024-02-21T04:57:30.596Z,102190.47
2024-02-21T04:59:57.885Z,102192.63
2024-02-21T05:02:25.634Z,102186.41
2024-02-21T05:04:53.894Z,102185.81
2024-02-21T05:07:21.272Z,102190.22
2024-02-21T05:09:48.722Z,102187.31
2024-02-21T05:12:16.409Z,102185.84
2024-02-21T05:14:43.666Z,102183.50
2024-02-21T05:17:11.073Z,102181.44
2024-02-21T05:19:38.463Z,102179.66
2024-02-21T05:22:06.854Z,102172.91
2024-02-21T05:24:34.231Z,102182.97
2024-02-21T05:27:01.608Z,102183.94
2024-02-21T05:29:28.908Z,102184.19
2024-02-21T05:31:58.667Z,102190.34
2024-02-21T05:34:26.932Z,102184.97
2024-02-21T05:36:54.432Z,102192.63
2024-02-21T05:39:23.936Z,102192.28
2024-02-21T05:41:52.003Z,102207.56
2024-02-21T05:44:20.153Z,102213.50
2024-02-21T05:46:47.601Z,102217.81
2024-02-21T05:49:15.641Z,102222.13
2024-02-21T05:51:42.986Z,102228.72
2024-02-21T05:54:10.259Z,102215.38
2024-02-21T05:56:37.558Z,102217.88
2024-02-21T05:59:04.930Z,102221.81
2024-02-21T06:01:32.292Z,102217.44
2024-02-21T06:03:59.639Z,102214.53
2024-02-21T06:06:27.040Z,102214.53
2024-02-21T06:08:54.465Z,102214.88
2024-02-21T06:11:21.998Z,102213.91
2024-02-21T06:13:49.455Z,102212.88
2024-02-21T06:16:16.777Z,102225.72
2024-02-21T06:18:44.515Z,102218.50
2024-02-21T06:21:13.613Z,102224.25
2024-02-21T06:23:40.903Z,102230.53
2024-02-21T06:26:08.253Z,102232.59
2024-02-21T06:28:35.650Z,102236.78
2024-02-21T06:31:03.149Z,102226.13
2024-02-21T06:33:30.595Z,102219.72
2024-02-21T06:35:58.307Z,102219.84
2024-02-21T06:38:25.879Z,102220.47
2024-02-21T06:40:55.341Z,102213.97
2024-02-21T06:43:23.437Z,102230.03
2024-02-21T06:45:54.584Z,102241.25
2024-02-21T06:48:22.061Z,102246.69
2024-02-21T06:50:49.541Z,102249.28
2024-02-21T06:53:16.924Z,102250.81
2024-02-21T06:55:44.384Z,102249.72
2024-02-21T06:58:13.227Z,102245.88
2024-02-21T07:00:41.514Z,102243.00
2024-02-21T07:03:09.019Z,102246.44
2024-02-21T07:05:36.451Z,102258.22
2024-02-21T07:08:04.572Z,102266.69
2024-02-21T07:10:32.068Z,102273.22
2024-02-21T07:12:59.384Z,102268.72
2024-02-21T07:15:28.056Z,102277.47
2024-02-21T07:17:55.615Z,102275.81
2024-02-21T07:20:23.025Z,102280.34
2024-02-21T07:22:50.583Z,102279.19
2024-02-21T07:25:18.046Z,102291.38
2024-02-21T07:27:46.080Z,102285.38
2024-02-21T07:30:16.315Z,102282.94
2024-02-21T07:32:45.394Z,102284.44
2024-02-21T07:35:13.428Z,102290.81
2024-02-21T07:37:41.046Z,102282.34
2024-02-21T07:40:14.346Z,102283.88
2024-02-21T07:42:42.184Z,102279.78
2024-02-21T07:45:10.106Z,102274.94
2024-02-21T07:47:38.241Z,102269.25
2024-02-21T07:50:06.274Z,102280.81
2024-02-21T07:52:34.374Z,102277.91
2024-02-21T07:55:02.091Z,102280.34
2024-02-21T07:57:29.378Z,102277.69
2024-02-21T07:59:56.712Z,102286.97
2024-02-21T08:02:24.101Z,102287.22
2024-02-21T08:04:51.434Z,102283.44
2024-02-21T08:07:18.844Z,102283.97
2024-02-21T08:09:46.300Z,102283.88
2024-02-21T08:12:13.685Z,102289.16
2024-02-21T08:14:42.137Z,102278.75
2024-02-21T08:17:09.804Z,102281.72
2024-02-21T08:19:37.399Z,102288.41
2024-02-21T08:22:05.234Z,102288.28
2024-02-21T08:24:32.940Z,102289.59
2024-02-21T08:27:00.173Z,102290.13
2024-02-21T08:29:27.490Z,102293.19
2024-02-21T08:31:55.085Z,102298.22
2024-02-21T08:34:22.566Z,102294.97
2024-02-21T08:36:49.998Z,102301.66
2024-02-21T08:39:17.956Z,102302.69
2024-02-21T08:41:52.619Z,102296.78
2024-02-21T08:44:27.667Z,102302.66
2024-02-21T08:46:55.510Z,102299.06
2024-02-21T08:49:23.197Z,102294.41
2024-02-21T08:51:50.649Z,102294.81
2024-02-21T08:54:18.299Z,102293.38
2024-02-21T08:56:45.754Z,102284.81
2024-02-21T08:59:13.118Z,102289.53
2024-02-21T09:01:40.627Z,102287.97
2024-02-21T09:04:08.746Z,102275.75
2024-02-21T09:06:40.233Z,102279.69
2024-02-21T09:09:09.229Z,102284.22
2024-02-21T09:11:36.789Z,102289.66
2024-02-21T09:14:04.969Z,102285.41
2024-02-21T09:16:33.640Z,102279.31
2024-02-21T09:19:02.100Z,102278.81
2024-02-21T09:21:29.634Z,102271.72
2024-02-21T09:23:59.952Z,102265.31
2024-02-21T09:26:28.191Z,102265.53
2024-02-21T09:28:55.684Z,102260.56
2024-02-21T09:31:23.171Z,102262.34
2024-02-21T09:33:51.013Z,102264.50
2024-02-21T09:36:18.413Z,102253.41
2024-02-21T09:38:45.697Z,102250.63
2024-02-21T09:41:21.643Z,102252.00
2024-02-21T09:43:55.441Z,102252.97
2024-02-21T09:46:43.699Z,102248.06
2024-02-21T09:49:26.184Z,102246.19
2024-02-21T09:51:56.553Z,102254.97
2024-02-21T09:54:24.059Z,102255.66
2024-02-21T09:56:51.397Z,102250.34
2024-02-21T09:59:19.479Z,102259.09
2024-02-21T10:01:51.509Z,102257.19
2024-02-21T10:04:20.005Z,102259.25
2024-02-21T10:06:48.336Z,102262.53
2024-02-21T10:09:29.000Z,102263.22
2024-02-21T10:12:20.270Z,102254.06
2024-02-21T10:14:47.706Z,102257.28
2024-02-21T10:17:20.257Z,102251.84
2024-02-21T10:19:48.804Z,102249.41
2024-02-21T10:22:16.647Z,102251.16
2024-02-21T10:24:44.208Z,102247.00
2024-02-21T10:27:14.626Z,102250.44
2024-02-21T10:29:42.892Z,102254.50
2024-02-21T10:32:15.188Z,102253.75
2024-02-21T10:34:44.300Z,102244.84
2024-02-21T10:37:13.306Z,102237.50
2024-02-21T10:39:42.299Z,102246.53
2024-02-21T10:42:12.905Z,102250.69
2024-02-21T10:44:43.324Z,102243.78
2024-02-21T10:47:15.019Z,102239.06
2024-02-21T10:49:46.908Z,102232.41
2024-02-21T10:52:33.567Z,102234.44
2024-02-21T10:55:08.258Z,102231.22
2024-02-21T10:57:36.843Z,102230.56
2024-02-21T11:00:09.360Z,102217.72
2024-02-21T11:02:37.841Z,102219.69
2024-02-21T11:05:05.990Z,102210.56
2024-02-21T11:07:38.251Z,102201.78
2024-02-21T11:10:08.541Z,102203.50
2024-02-21T11:12:35.983Z,102195.66
2024-02-21T11:15:07.440Z,102190.88
2024-02-21T11:17:37.495Z,102184.38
2024-02-21T11:20:15.509Z,102183.13
2024-02-21T11:22:44.376Z,102178.88
2024-02-21T11:25:14.641Z,102167.28
2024-02-21T11:27:48.722Z,102159.47
2024-02-21T11:30:17.325Z,102156.16
2024-02-21T11:32:44.673Z,102149.69
2024-02-21T11:35:21.108Z,102148.00
2024-02-21T11:37:48.718Z,102142.53
2024-02-21T11:40:16.162Z,102145.25
2024-02-21T11:42:43.590Z,102130.06
2024-02-21T11:45:11.321Z,102131.81
2024-02-21T11:47:42.234Z,102129.28
2024-02-21T11:50:13.982Z,102129.88
2024-02-21T11:52:42.769Z,102125.34
2024-02-21T11:55:10.796Z,102117.13
2024-02-21T11:57:44.227Z,102110.47
2024-02-21T12:00:21.979Z,102108.25
2024-02-21T12:02:51.257Z,102110.81
2024-02-21T12:05:20.435Z,102100.38
2024-02-21T12:07:48.019Z,102092.91
2024-02-21T12:10:15.426Z,102094.38
2024-02-21T12:12:42.817Z,102084.25
2024-02-21T12:15:10.562Z,102073.59
2024-02-21T12:17:39.306Z,102079.94
2024-02-21T12:20:10.634Z,102059.56
2024-02-21T12:22:44.913Z,102060.78
2024-02-21T12:25:20.145Z,102044.53
2024-02-21T12:27:48.070Z,102038.28
2024-02-21T12:30:15.985Z,102031.78
2024-02-21T12:32:43.406Z,102025.03
2024-02-21T12:35:10.973Z,102017.44
2024-02-21T12:37:42.498Z,102017.25
2024-02-21T12:40:11.663Z,102007.09
2024-02-21T12:42:39.385Z,102010.56
2024-02-21T12:45:07.060Z,102012.50
2024-02-21T12:47:34.396Z,102006.06
2024-02-21T12:50:04.410Z,102012.66
2024-02-21T12:52:32.660Z,101994.28
2024-02-21T12:55:00.142Z,101993.88
2024-02-21T12:57:28.497Z,101989.22
2024-02-21T12:59:56.191Z,101985.41
2024-02-21T13:02:23.718Z,101983.06
2024-02-21T13:04:51.414Z,101971.84
2024-02-21T13:07:19.074Z,101973.56
2024-02-21T13:09:46.553Z,101959.78
2024-02-21T13:12:14.056Z,101959.19
2024-02-21T13:14:44.802Z,101953.56
2024-02-21T13:17:12.248Z,101953.13
2024-02-21T13:19:39.777Z,101948.97
2024-02-21T13:22:08.044Z,101946.44
2024-02-21T13:24:35.443Z,101948.50
2024-02-21T13:27:04.404Z,101938.97
2024-02-21T13:29:31.792Z,101942.19
2024-02-21T13:31:59.647Z,101940.41
2024-02-21T13:34:27.288Z,101939.28
2024-02-21T13:36:54.934Z,101932.19
2024-02-21T13:39:22.635Z,101923.19
2024-02-21T13:41:50.133Z,101922.28
2024-02-21T13:44:18.339Z,101906.72
2024-02-21T13:46:45.772Z,101905.47
2024-02-21T13:49:13.202Z,101899.66
2024-02-21T13:51:42.120Z,101859.19
2024-02-21T13:54:10.488Z,101858.97
2024-02-21T13:56:38.819Z,101838.94
2024-02-21T13:59:06.471Z,101833.91
2024-02-21T14:01:34.209Z,101824.41
2024-02-21T14:04:01.633Z,101818.53
2024-02-21T14:06:29.237Z,101798.13
2024-02-21T14:08:56.784Z,101790.06
2024-02-21T14:11:24.575Z,101764.66
2024-02-21T14:13:52.264Z,101737.31
2024-02-21T14:16:19.708Z,101715.53
2024-02-21T14:18:47.175Z,101735.69
2024-02-21T14:21:14.953Z,101726.41
2024-02-21T14:23:42.415Z,101708.78
2024-02-21T14:26:19.251Z,101745.72
2024-02-21T14:28:47.877Z,101716.22
2024-02-21T14:31:15.351Z,101756.84
2024-02-21T14:33:43.100Z,101778.00
2024-02-21T14:36:12.525Z,101803.78
2024-02-21T14:38:40.022Z,101808.03
2024-02-21T14:41:07.514Z,101801.69
2024-02-21T14:43:36.244Z,101808.28
2024-02-21T14:46:05.517Z,101800.06
2024-02-21T14:48:33.527Z,101803.75
2024-02-21T14:51:01.818Z,101791.63
2024-02-21T14:53:30.491Z,101787.78
2024-02-21T14:55:59.029Z,101792.25
2024-02-21T14:58:27.069Z,101784.13
2024-02-21T15:00:55.494Z,101776.16
2024-02-21T15:03:23.128Z,101773.56
2024-02-21T15:05:50.660Z,101777.38
2024-02-21T15:08:19.514Z,101776.56
2024-02-21T15:10:47.031Z,101781.91
2024-02-21T15:13:15.552Z,101783.38
2024-02-21T15:15:43.007Z,101779.00
2024-02-21T15:18:10.396Z,101781.84
2024-02-21T15:20:38.289Z,101774.88
2024-02-21T15:23:06.364Z,101771.81
2024-02-21T15:25:35.044Z,101766.41
2024-02-21T15:28:05.570Z,101761.00
2024-02-21T15:30:33.989Z,101764.97
2024-02-21T15:33:04.377Z,101764.75
2024-02-21T15:35:32.365Z,101762.97
2024-02-21T15:38:00.213Z,101760.44
2024-02-21T15:40:28.081Z,101753.66
2024-02-21T15:42:55.612Z,101755.38
2024-02-21T15:45:23.410Z,101746.09
2024-02-21T15:47:51.762Z,101752.84
2024-02-21T15:50:20.502Z,101753.22
2024-02-21T15:52:47.938Z,101748.72
2024-02-21T15:55:15.658Z,101748.09
2024-02-21T15:57:43.249Z,101747.41
2024-02-21T16:00:13.362Z,101745.00
2024-02-21T16:02:44.329Z,101743.09
2024-02-21T16:05:12.223Z,101744.00
2024-02-21T16:07:39.960Z,101749.28
2024-02-21T16:10:08.640Z,101749.44
2024-02-21T16:12:36.178Z,101756.25
2024-02-21T16:15:05.935Z,101759.00
2024-02-21T16:17:33.465Z,101756.47
2024-02-21T16:20:05.293Z,101755.22
2024-02-21T16:22:32.966Z,101745.25
2024-02-21T16:25:00.280Z,101758.13
2024-02-21T16:27:27.635Z,101745.22
2024-02-21T16:29:54.990Z,101747.03
2024-02-21T16:32:22.306Z,101746.16
2024-02-21T16:34:50.156Z,101752.00
2024-02-21T16:37:17.528Z,101749.47
2024-02-21T16:39:45.434Z,101750.88
2024-02-21T16:42:12.824Z,101752.00
2024-02-21T16:44:40.181Z,101744.09
2024-02-21T16:47:08.049Z,101750.44
2024-02-21T16:49:37.449Z,101753.22
2024-02-21T16:52:05.758Z,101754.59
2024-02-21T16:54:34.155Z,101742.53
2024-02-21T16:57:02.163Z,101757.28
2024-02-21T16:59:29.905Z,101765.00
2024-02-21T17:01:57.403Z,101761.44
2024-02-21T17:04:28.073Z,101765.03
2024-02-21T17:06:56.270Z,101764.84
2024-02-21T17:09:23.706Z,101772.47
2024-02-21T17:11:52.828Z,101772.03
2024-02-21T17:14:20.812Z,101764.59
2024-02-21T17:16:48.316Z,101769.28
2024-02-21T17:19:16.519Z,101766.47
2024-02-21T17:21:44.381Z,101763.53
2024-02-21T17:24:11.945Z,101770.97
2024-02-21T17:26:40.175Z,101772.25
2024-02-21T17:29:08.577Z,101770.09
2024-02-21T17:31:36.235Z,101773.13
2024-02-21T17:34:04.266Z,101773.78
2024-02-21T17:36:31.705Z,101774.28
2024-02-21T17:38:59.102Z,101771.66
2024-02-21T17:41:26.480Z,101769.28
2024-02-21T17:43:53.906Z,101774.44
2024-02-21T17:46:22.912Z,101767.53
2024-02-21T17:48:50.394Z,101769.59
2024-02-21T17:51:17.770Z,101768.44
2024-02-21T17:53:45.255Z,101772.31
2024-02-21T17:56:12.878Z,101765.84
2024-02-21T17:58:40.293Z,101770.16
2024-02-21T18:01:07.753Z,101764.78
2024-02-21T18:03:35.187Z,101769.59
2024-02-21T18:06:04.265Z,101765.06
2024-02-21T18:08:32.671Z,101762.16
2024-02-21T18:11:00.339Z,101753.66
2024-02-21T18:13:31.438Z,101756.06
2024-02-21T18:16:05.976Z,101750.13
2024-02-21T18:18:33.619Z,101749.25
2024-02-21T18:21:01.230Z,101748.88
2024-02-21T18:23:31.129Z,101740.88
2024-02-21T18:26:00.467Z,101740.94
2024-02-21T18:28:28.893Z,101733.16
2024-02-21T18:30:56.402Z,101745.59
2024-02-21T18:33:24.099Z,101732.50
2024-02-21T18:35:51.930Z,101726.97
2024-02-21T18:38:19.383Z,101738.63
2024-02-21T18:40:47.171Z,101735.72
2024-02-21T18:43:15.834Z,101738.63
2024-02-21T18:45:43.724Z,101741.00
2024-02-21T18:48:14.683Z,101741.84
2024-02-21T18:50:43.703Z,101739.31
2024-02-21T18:53:11.383Z,101731.16
2024-02-21T18:55:38.864Z,101724.50
2024-02-21T18:58:06.594Z,101728.91
2024-02-21T19:00:34.067Z,101724.28
2024-02-21T19:03:01.441Z,101722.09
2024-02-21T19:05:28.999Z,101721.25
2024-02-21T19:07:56.625Z,101716.19
2024-02-21T19:10:24.206Z,101720.09
2024-02-21T19:12:51.667Z,101715.31
2024-02-21T19:15:19.653Z,101710.88
2024-02-21T19:17:47.148Z,101709.72
2024-02-21T19:20:14.835Z,101710.88
2024-02-21T19:22:46.859Z,101702.91
2024-02-21T19:25:18.706Z,101703.72
2024-02-21T19:27:46.586Z,101701.91
2024-02-21T19:30:15.201Z,101707.53
2024-02-21T19:32:42.966Z,101709.06
2024-02-21T19:35:13.470Z,101705.81
2024-02-21T19:37:41.910Z,101707.19
2024-02-21T19:40:14.027Z,101701.94
2024-02-21T19:42:41.926Z,101697.16
2024-02-21T19:45:09.908Z,101693.59
2024-02-21T19:47:37.697Z,101693.44
2024-02-21T19:50:05.706Z,101683.94
2024-02-21T19:52:33.146Z,101684.09
2024-02-21T19:55:00.940Z,101679.00
2024-02-21T19:57:28.810Z,101674.06
2024-02-21T19:59:56.502Z,101671.34
2024-02-21T20:02:25.296Z,101669.78
2024-02-21T20:04:53.212Z,101667.91
2024-02-21T20:07:23.589Z,101664.69
2024-02-21T20:09:53.243Z,101674.47
2024-02-21T20:12:21.781Z,101668.97
2024-02-21T20:14:50.548Z,101673.06
2024-02-21T20:17:18.165Z,101673.56
2024-02-21T20:19:46.768Z,101670.19
2024-02-21T20:22:14.167Z,101669.25
2024-02-21T20:24:41.638Z,101655.50
2024-02-21T20:27:09.030Z,101655.72
2024-02-21T20:29:36.669Z,101658.09
2024-02-21T20:32:04.988Z,101651.13
2024-02-21T20:34:34.049Z,101651.47
2024-02-21T20:37:01.972Z,101654.19
2024-02-21T20:39:30.295Z,101649.41
2024-02-21T20:41:58.532Z,101660.84
2024-02-21T20:44:26.285Z,101657.03
2024-02-21T20:46:54.683Z,101658.50
2024-02-21T20:49:22.621Z,101654.59
2024-02-21T20:51:50.153Z,101652.09
2024-02-21T20:54:17.621Z,101650.13
2024-02-21T20:56:45.610Z,101636.06
2024-02-21T20:59:19.497Z,101642.72
2024-02-21T21:01:54.181Z,101642.56
2024-02-21T21:04:29.410Z,101642.44
2024-02-21T21:06:57.091Z,101629.56
2024-02-21T21:09:24.638Z,101637.25
2024-02-21T21:11:52.152Z,101629.25
2024-02-21T21:14:20.004Z,101624.16
2024-02-21T21:16:47.753Z,101621.34
2024-02-21T21:19:15.467Z,101609.13
2024-02-21T21:21:45.975Z,101611.88
2024-02-21T21:24:18.638Z,101611.19
2024-02-21T21:26:47.003Z,101610.66
2024-02-21T21:29:14.885Z,101609.63
2024-02-21T21:31:45.119Z,101598.91
2024-02-21T21:34:14.061Z,101593.34
2024-02-21T21:36:41.690Z,101601.50
2024-02-21T21:39:09.336Z,101590.28
2024-02-21T21:41:36.932Z,101602.06
2024-02-21T21:44:04.528Z,101599.03
2024-02-21T21:46:32.383Z,101599.34
2024-02-21T21:48:59.999Z,101595.63
2024-02-21T21:51:30.390Z,101591.59
2024-02-21T21:53:57.925Z,101590.31
2024-02-21T21:56:25.297Z,101591.34
2024-02-21T21:58:52.829Z,101586.31
2024-02-21T22:01:20.253Z,101579.38
2024-02-21T22:03:48.105Z,101586.59
2024-02-21T22:06:15.506Z,101580.50
2024-02-21T22:08:47.151Z,101575.50
2024-02-21T22:11:17.833Z,101577.41
2024-02-21T22:13:45.849Z,101586.44
2024-02-21T22:16:13.446Z,101583.00
2024-02-21T22:18:43.355Z,101579.63
2024-02-21T22:21:11.023Z,101569.91
2024-02-21T22:23:40.490Z,101577.81
2024-02-21T22:26:08.440Z,101574.78
2024-02-21T22:28:35.919Z,101568.41
2024-02-21T22:31:03.406Z,101569.91
2024-02-21T22:33:30.920Z,101570.13
2024-02-21T22:35:58.234Z,101561.13
2024-02-21T22:38:25.838Z,101570.34
2024-02-21T22:40:53.356Z,101574.53
2024-02-21T22:43:20.800Z,101580.72
2024-02-21T22:45:50.516Z,101582.19
2024-02-21T22:48:17.904Z,101574.34
2024-02-21T22:50:45.606Z,101570.75
2024-02-21T22:53:13.206Z,101578.22
2024-02-21T22:55:40.722Z,101579.91
2024-02-21T22:58:08.067Z,101577.47
2024-02-21T23:00:35.464Z,101578.38
2024-02-21T23:03:02.893Z,101571.69
2024-02-21T23:05:30.301Z,101575.34
2024-02-21T23:07:57.847Z,101576.59
2024-02-21T23:10:27.072Z,101572.94
2024-02-21T23:12:55.450Z,101572.56
2024-02-21T23:15:22.767Z,101568.63
2024-02-21T23:17:50.243Z,101562.94
2024-02-21T23:20:17.598Z,101560.59
2024-02-21T23:22:45.158Z,101559.03
2024-02-21T23:25:13.524Z,101557.72
2024-02-21T23:27:41.947Z,101551.88
2024-02-21T23:30:12.645Z,101552.69
2024-02-21T23:32:41.957Z,101547.44
2024-02-21T23:35:09.657Z,101543.09
2024-02-21T23:37:37.280Z,101537.13
2024-02-21T23:40:05.146Z,101529.03
2024-02-21T23:42:32.858Z,101520.69
2024-02-21T23:45:00.368Z,101520.03
2024-02-21T23:47:27.754Z,101510.06
2024-02-21T23:49:55.149Z,101506.50
2024-02-21T23:52:22.564Z,101497.19
2024-02-21T23:54:49.888Z,101497.19
2024-02-21T23:57:17.215Z,101495.94
2024-02-21T23:59:45.343Z,101487.63
